Time;durP1;ratioP1;P1;durP2;ratioP2;P2;SDS_P1;SDS_P2;PMS_P1;PMS_P2;Temp;Humidity;BMP_temperature;BMP_pressure;BME280_temperature;BME280_humidity;BME280_pressure;Samples;Min_cycle;Max_cycle;Signal;HPM_P1;HPM_P2
2022/07/13 00:01:49;;;;;;;1.53;1.40;;;20.50;99.90;;;;;;5025824;28;20600;-70
2022/07/13 00:04:14;;;;;;;1.40;1.30;;;20.40;99.90;;;;;;5025377;28;20195;-68
2022/07/13 00:06:40;;;;;;;1.57;1.20;;;20.40;99.90;;;;;;5024379;28;21165;-67
2022/07/13 00:09:05;;;;;;;2.10;1.50;;;20.40;99.90;;;;;;5025827;28;20229;-68
2022/07/13 00:11:31;;;;;;;1.53;1.43;;;20.40;99.90;;;;;;5025692;28;20264;-68
2022/07/13 00:13:56;;;;;;;1.47;1.23;;;20.50;99.90;;;;;;5025751;28;20195;-69
2022/07/13 00:16:22;;;;;;;1.20;1.10;;;20.40;99.90;;;;;;5025437;28;20183;-70
2022/07/13 00:18:48;;;;;;;2.07;1.30;;;20.30;99.90;;;;;;5025214;28;20203;-68
2022/07/13 00:21:13;;;;;;;1.40;1.30;;;20.10;99.90;;;;;;5025465;28;20210;-69
2022/07/13 00:23:39;;;;;;;2.60;1.50;;;20.20;99.90;;;;;;5025507;28;20187;-70
2022/07/13 00:26:05;;;;;;;1.33;1.23;;;20.30;99.90;;;;;;5025390;28;20196;-68
2022/07/13 00:28:31;;;;;;;2.77;1.37;;;20.30;99.90;;;;;;5025967;28;20973;-70
2022/07/13 00:30:57;;;;;;;1.57;1.27;;;20.20;99.90;;;;;;5012768;28;20422;-68
2022/07/13 00:33:22;;;;;;;1.00;0.90;;;20.20;99.90;;;;;;5025374;28;20357;-69
2022/07/13 00:35:48;;;;;;;2.03;1.27;;;20.10;99.90;;;;;;5025465;28;20209;-69
2022/07/13 00:38:13;;;;;;;2.40;1.23;;;20.10;99.90;;;;;;5025006;28;20187;-71
2022/07/13 00:40:39;;;;;;;1.83;1.33;;;20.10;99.90;;;;;;5023940;28;20223;-68
2022/07/13 00:43:04;;;;;;;1.23;1.13;;;20.10;99.90;;;;;;5024889;28;20644;-68
2022/07/13 00:45:30;;;;;;;1.40;1.30;;;20.10;99.90;;;;;;5024937;28;20185;-68
2022/07/13 00:47:57;;;;;;;1.43;1.33;;;20.10;99.90;;;;;;5024830;28;20186;-70
2022/07/13 00:50:23;;;;;;;1.30;1.20;;;20.20;99.90;;;;;;5024709;28;20424;-69
2022/07/13 00:52:49;;;;;;;2.00;1.20;;;20.20;99.90;;;;;;5024885;28;20425;-68
2022/07/13 00:55:16;;;;;;;1.30;1.10;;;20.00;99.90;;;;;;5023449;28;20810;-67
2022/07/13 00:57:41;;;;;;;1.30;1.20;;;20.00;99.90;;;;;;5025242;28;20422;-67
2022/07/13 01:00:10;;;;;;;1.33;1.23;;;20.00;99.90;;;;;;5024976;28;20961;-68
2022/07/13 01:02:44;;;;;;;1.70;1.10;;;20.00;99.90;;;;;;5025145;28;20257;-68
2022/07/13 01:05:10;;;;;;;1.40;1.20;;;20.00;99.90;;;;;;5022585;28;20444;-68
2022/07/13 01:07:36;;;;;;;1.40;1.30;;;20.00;99.90;;;;;;5024671;28;20414;-68
2022/07/13 01:10:07;;;;;;;1.70;1.10;;;20.00;99.90;;;;;;5024278;28;20437;-68
2022/07/13 01:12:34;;;;;;;1.40;1.30;;;19.90;99.90;;;;;;5024210;28;20171;-69
2022/07/13 01:15:00;;;;;;;1.40;1.27;;;19.80;99.90;;;;;;5024511;28;20478;-69
2022/07/13 01:17:26;;;;;;;2.07;1.33;;;19.70;99.90;;;;;;5024504;28;20406;-69
2022/07/13 01:19:52;;;;;;;2.20;1.43;;;19.60;99.90;;;;;;5024138;28;20466;-69
2022/07/13 01:22:24;;;;;;;1.77;1.63;;;19.60;99.90;;;;;;5023643;28;20433;-70
2022/07/13 01:24:51;;;;;;;1.93;1.33;;;19.60;99.90;;;;;;5023964;28;20424;-68
2022/07/13 01:27:17;;;;;;;1.37;1.27;;;19.50;99.90;;;;;;5024337;28;20422;-70
2022/07/13 01:29:43;;;;;;;1.40;1.20;;;19.60;99.90;;;;;;5024186;28;20809;-69
2022/07/13 01:32:08;;;;;;;1.23;1.10;;;19.70;99.90;;;;;;5024043;28;20417;-70
2022/07/13 01:34:34;;;;;;;2.63;1.30;;;19.70;99.90;;;;;;5022304;28;20206;-69
2022/07/13 01:37:00;;;;;;;3.27;1.20;;;19.70;99.90;;;;;;5023904;28;20265;-69
2022/07/13 01:39:27;;;;;;;1.17;1.03;;;19.80;99.90;;;;;;5022589;28;20223;-67
2022/07/13 01:41:53;;;;;;;1.10;1.00;;;19.80;99.90;;;;;;5023765;28;20476;-70
2022/07/13 01:44:19;;;;;;;2.00;1.77;;;19.80;99.90;;;;;;5023942;28;20899;-71
2022/07/13 01:46:45;;;;;;;1.77;1.37;;;19.80;99.90;;;;;;5023870;28;20187;-68
2022/07/13 01:49:10;;;;;;;1.87;1.10;;;19.80;99.90;;;;;;5023635;28;20217;-70
2022/07/13 01:51:37;;;;;;;1.50;1.20;;;19.70;99.90;;;;;;5023704;28;20881;-68
2022/07/13 01:54:03;;;;;;;1.30;1.13;;;19.70;99.90;;;;;;5023270;28;20679;-68
2022/07/13 01:56:28;;;;;;;1.53;1.20;;;19.60;99.90;;;;;;5023931;28;20418;-68
2022/07/13 01:58:54;;;;;;;1.70;1.40;;;19.80;99.90;;;;;;5023349;28;20607;-68
2022/07/13 02:01:19;;;;;;;3.23;0.87;;;19.80;99.90;;;;;;5023599;28;20179;-69
2022/07/13 02:03:45;;;;;;;1.87;1.77;;;19.80;99.90;;;;;;5023286;28;20266;-68
2022/07/13 02:06:11;;;;;;;1.57;1.20;;;19.70;99.90;;;;;;5023269;28;20262;-68
2022/07/13 02:08:37;;;;;;;1.30;1.17;;;19.70;99.90;;;;;;5023605;28;20206;-69
2022/07/13 02:11:03;;;;;;;1.27;1.17;;;19.60;99.90;;;;;;5023686;28;20183;-68
2022/07/13 02:13:28;;;;;;;1.40;1.30;;;19.60;99.90;;;;;;5023441;28;20449;-67
2022/07/13 02:15:54;;;;;;;1.80;1.40;;;19.70;99.90;;;;;;5023320;28;20457;-69
2022/07/13 02:18:20;;;;;;;1.43;0.90;;;19.70;99.90;;;;;;5022769;28;20209;-69
2022/07/13 02:20:46;;;;;;;1.30;1.17;;;19.80;99.90;;;;;;5023237;28;20233;-72
2022/07/13 02:23:12;;;;;;;1.73;1.30;;;19.80;99.90;;;;;;5023641;28;20286;-69
2022/07/13 02:25:37;;;;;;;1.30;1.10;;;19.80;99.90;;;;;;5004641;28;20457;-67
2022/07/13 02:28:04;;;;;;;2.60;1.50;;;19.90;99.90;;;;;;5023567;28;20506;-69
2022/07/13 02:30:30;;;;;;;1.30;1.20;;;19.90;99.90;;;;;;5023366;28;20253;-69
2022/07/13 02:32:56;;;;;;;1.20;1.10;;;19.90;99.90;;;;;;5023582;28;20814;-67
2022/07/13 02:35:22;;;;;;;1.90;1.50;;;19.80;99.90;;;;;;5023244;28;20979;-67
2022/07/13 02:37:48;;;;;;;1.30;1.10;;;19.70;99.90;;;;;;5005520;28;20424;-68
2022/07/13 02:40:14;;;;;;;1.23;1.13;;;19.60;99.90;;;;;;5023263;28;20226;-68
2022/07/13 02:42:40;;;;;;;1.70;0.90;;;19.80;99.90;;;;;;5023249;28;20186;-68
2022/07/13 02:45:06;;;;;;;4.60;1.13;;;19.90;99.90;;;;;;5023426;28;20190;-68
2022/07/13 02:47:32;;;;;;;2.30;1.17;;;19.90;99.90;;;;;;5023108;28;21501;-68
2022/07/13 02:49:57;;;;;;;1.93;1.23;;;19.90;99.90;;;;;;5023595;28;20448;-69
2022/07/13 02:52:23;;;;;;;3.37;1.47;;;20.00;99.90;;;;;;5023212;28;20194;-68
2022/07/13 02:54:49;;;;;;;1.13;1.03;;;19.90;99.90;;;;;;5022544;28;20221;-68
2022/07/13 02:57:14;;;;;;;1.63;1.23;;;19.90;99.90;;;;;;5023108;28;20241;-68
2022/07/13 02:59:40;;;;;;;1.50;1.30;;;19.90;99.90;;;;;;5023054;28;20203;-67
2022/07/13 03:02:06;;;;;;;1.27;1.17;;;19.80;99.90;;;;;;5023277;28;20183;-68
2022/07/13 03:04:33;;;;;;;1.63;1.40;;;19.70;99.90;;;;;;5022214;28;20241;-70
2022/07/13 03:06:59;;;;;;;1.77;1.40;;;19.60;99.90;;;;;;5022944;28;20421;-69
2022/07/13 03:09:24;;;;;;;2.23;1.27;;;19.50;99.90;;;;;;5022634;28;20784;-68
2022/07/13 03:11:50;;;;;;;3.57;1.50;;;19.50;99.90;;;;;;5023084;28;20191;-71
2022/07/13 03:14:16;;;;;;;1.40;1.30;;;19.50;99.90;;;;;;5023094;28;20187;-69
2022/07/13 03:16:42;;;;;;;1.73;1.63;;;19.50;99.90;;;;;;5021869;28;20301;-70
2022/07/13 03:19:08;;;;;;;2.40;1.23;;;19.40;99.90;;;;;;5022883;28;20520;-68
2022/07/13 03:21:34;;;;;;;1.70;1.60;;;19.30;99.90;;;;;;5022771;28;20179;-69
2022/07/13 03:24:00;;;;;;;2.17;1.90;;;19.20;99.90;;;;;;5023164;28;20241;-70
2022/07/13 03:26:26;;;;;;;1.77;1.37;;;19.10;99.90;;;;;;5013666;28;20785;-69
2022/07/13 03:28:51;;;;;;;1.40;1.30;;;19.10;99.90;;;;;;5024404;28;20214;-70
2022/07/13 03:31:18;;;;;;;1.70;1.60;;;19.10;99.90;;;;;;5026459;28;20183;-70
2022/07/13 03:33:44;;;;;;;2.27;1.50;;;19.20;99.90;;;;;;5026147;28;20229;-69
2022/07/13 03:36:09;;;;;;;1.70;1.60;;;19.10;99.90;;;;;;5026422;28;20496;-69
2022/07/13 03:38:36;;;;;;;3.53;1.47;;;19.10;99.90;;;;;;5026078;28;20453;-72
2022/07/13 03:41:01;;;;;;;1.47;1.37;;;19.20;99.90;;;;;;5025581;28;20501;-69
2022/07/13 03:43:27;;;;;;;2.03;1.87;;;19.10;99.90;;;;;;5026186;28;20414;-69
2022/07/13 03:45:53;;;;;;;2.63;1.60;;;19.10;99.90;;;;;;5026455;28;20179;-69
2022/07/13 03:48:18;;;;;;;1.70;1.60;;;19.00;99.90;;;;;;5026140;28;20731;-70
2022/07/13 03:50:44;;;;;;;2.50;1.70;;;19.10;99.90;;;;;;5026657;28;20565;-70
2022/07/13 03:53:11;;;;;;;1.50;1.40;;;19.10;99.90;;;;;;5026301;28;20558;-68
2022/07/13 03:55:38;;;;;;;3.37;1.77;;;19.00;99.90;;;;;;5025841;28;20493;-71
2022/07/13 03:58:04;;;;;;;1.97;1.77;;;19.00;99.90;;;;;;5026132;28;20418;-70
2022/07/13 04:00:30;;;;;;;2.83;1.70;;;19.00;99.90;;;;;;5026237;28;20833;-69
2022/07/13 04:02:57;;;;;;;2.30;1.60;;;18.90;99.90;;;;;;5026118;28;20425;-68
2022/07/13 04:05:22;;;;;;;2.07;1.50;;;18.80;99.90;;;;;;5008187;28;20520;-69
2022/07/13 04:07:48;;;;;;;1.80;1.70;;;18.80;99.90;;;;;;5026049;28;20512;-71
2022/07/13 04:10:14;;;;;;;1.87;1.60;;;18.80;99.90;;;;;;5025866;28;20214;-69
2022/07/13 04:12:42;;;;;;;1.67;1.53;;;18.90;99.90;;;;;;5007369;28;20244;-69
2022/07/13 04:15:09;;;;;;;1.40;1.30;;;18.90;99.90;;;;;;5025890;28;20195;-70
2022/07/13 04:17:35;;;;;;;1.53;1.43;;;19.00;99.90;;;;;;5025931;28;21090;-68
2022/07/13 04:20:01;;;;;;;1.50;1.40;;;19.10;99.90;;;;;;5025448;28;20426;-68
2022/07/13 04:22:26;;;;;;;1.70;1.50;;;19.00;99.90;;;;;;5025732;28;20182;-70
2022/07/13 04:24:52;;;;;;;2.20;1.90;;;18.90;99.90;;;;;;5025323;28;20187;-68
2022/07/13 04:27:18;;;;;;;1.80;1.53;;;18.90;99.90;;;;;;5025747;28;20186;-68
2022/07/13 04:29:43;;;;;;;4.17;1.53;;;18.70;99.90;;;;;;5025407;28;20286;-69
2022/07/13 04:32:09;;;;;;;1.67;1.50;;;18.70;99.90;;;;;;5024749;28;20270;-68
2022/07/13 04:34:34;;;;;;;2.13;1.90;;;18.70;99.90;;;;;;5024851;28;20199;-69
2022/07/13 04:37:00;;;;;;;1.73;1.63;;;18.80;99.90;;;;;;5025471;28;20735;-68
2022/07/13 04:39:25;;;;;;;1.80;1.70;;;18.90;99.90;;;;;;5024781;28;20219;-68
2022/07/13 04:41:51;;;;;;;1.70;1.60;;;18.90;99.90;;;;;;5024333;28;20258;-70
2022/07/13 04:44:17;;;;;;;1.97;1.60;;;18.90;99.90;;;;;;5024807;28;20191;-69
2022/07/13 04:46:42;;;;;;;1.70;1.43;;;18.90;99.90;;;;;;5025056;28;20197;-68
2022/07/13 04:49:08;;;;;;;2.67;1.50;;;19.00;99.90;;;;;;5024577;28;20694;-68
2022/07/13 04:51:36;;;;;;;1.30;1.17;;;19.00;99.90;;;;;;5025079;28;20198;-69
2022/07/13 04:54:02;;;;;;;1.90;1.80;;;19.10;99.90;;;;;;5025465;28;20187;-68
2022/07/13 04:56:28;;;;;;;2.47;1.60;;;19.20;99.90;;;;;;5024586;28;20458;-69
2022/07/13 04:59:01;;;;;;;3.33;2.07;;;19.00;99.90;;;;;;5023726;28;20245;-69
2022/07/13 05:01:27;;;;;;;2.20;1.70;;;18.90;99.90;;;;;;5024216;28;20229;-69
2022/07/13 05:03:53;;;;;;;4.23;2.00;;;18.70;99.90;;;;;;5022788;28;20444;-68
2022/07/13 05:06:18;;;;;;;1.97;1.80;;;18.80;99.90;;;;;;5023017;28;20430;-68
2022/07/13 05:08:44;;;;;;;2.70;1.57;;;18.90;99.90;;;;;;5006665;28;20577;-69
2022/07/13 05:11:10;;;;;;;2.53;2.07;;;19.00;99.90;;;;;;5024590;28;20183;-68
2022/07/13 05:13:36;;;;;;;4.47;2.00;;;18.90;99.90;;;;;;5024189;28;20202;-71
2022/07/13 05:16:01;;;;;;;2.40;1.80;;;19.00;99.90;;;;;;5024089;28;20860;-69
2022/07/13 05:18:27;;;;;;;2.47;2.10;;;19.10;99.90;;;;;;5023379;28;20582;-69
2022/07/13 05:20:53;;;;;;;2.40;2.20;;;19.30;99.90;;;;;;5024052;28;20228;-67
2022/07/13 05:23:18;;;;;;;2.20;2.00;;;19.40;99.90;;;;;;5024352;28;20183;-68
2022/07/13 05:25:44;;;;;;;2.70;1.57;;;19.60;99.90;;;;;;5024480;28;20179;-70
2022/07/13 05:28:09;;;;;;;1.93;1.83;;;19.80;99.90;;;;;;5023929;28;20302;-68
2022/07/13 05:30:35;;;;;;;2.10;1.80;;;19.90;99.90;;;;;;5023369;28;20183;-68
2022/07/13 05:33:00;;;;;;;2.87;1.73;;;20.10;99.90;;;;;;5006218;28;20175;-71
2022/07/13 05:35:26;;;;;;;2.20;2.00;;;20.20;99.90;;;;;;5023720;28;20332;-68
2022/07/13 05:37:52;;;;;;;2.87;1.97;;;20.30;99.90;;;;;;5023958;28;20191;-69
2022/07/13 05:40:17;;;;;;;2.63;1.53;;;20.60;99.90;;;;;;5024001;28;20241;-69
2022/07/13 05:42:43;;;;;;;3.70;2.00;;;20.80;99.90;;;;;;5023625;28;20179;-70
2022/07/13 05:45:09;;;;;;;4.50;1.97;;;21.00;99.90;;;;;;5023688;28;20209;-71
2022/07/13 05:47:35;;;;;;;3.30;1.80;;;21.20;99.90;;;;;;5022572;28;20206;-68
2022/07/13 05:50:00;;;;;;;2.20;1.80;;;21.30;99.90;;;;;;5023687;28;20564;-71
2022/07/13 05:52:26;;;;;;;2.97;1.80;;;21.50;99.90;;;;;;5023609;28;20561;-68
2022/07/13 05:54:52;;;;;;;1.70;1.60;;;21.60;99.90;;;;;;5023447;28;20209;-69
2022/07/13 05:57:18;;;;;;;3.87;2.17;;;21.70;99.90;;;;;;5024035;28;20187;-71
2022/07/13 05:59:44;;;;;;;2.07;1.93;;;21.80;99.90;;;;;;5023414;28;20441;-69
2022/07/13 06:02:10;;;;;;;3.23;2.00;;;21.80;99.90;;;;;;5023524;28;20262;-69
2022/07/13 06:04:36;;;;;;;3.07;1.73;;;21.80;99.90;;;;;;5023965;28;20278;-68
2022/07/13 06:07:02;;;;;;;3.40;1.80;;;21.80;99.90;;;;;;5022723;28;20843;-68
2022/07/13 06:09:27;;;;;;;1.73;1.43;;;21.80;99.90;;;;;;5023439;28;20856;-69
2022/07/13 06:11:53;;;;;;;3.47;1.70;;;21.90;99.90;;;;;;5023531;28;20667;-70
2022/07/13 06:14:19;;;;;;;2.27;1.53;;;22.00;99.90;;;;;;5022386;28;20194;-68
2022/07/13 06:16:44;;;;;;;2.43;1.60;;;22.10;99.90;;;;;;5023068;28;20644;-69
2022/07/13 06:19:10;;;;;;;4.27;2.00;;;22.20;99.90;;;;;;5023598;28;20210;-67
2022/07/13 06:21:35;;;;;;;2.07;1.80;;;22.40;99.90;;;;;;5023062;28;20672;-69
2022/07/13 06:24:01;;;;;;;2.37;1.70;;;22.50;99.90;;;;;;5023459;28;20186;-71
2022/07/13 06:26:26;;;;;;;2.40;1.90;;;22.70;99.90;;;;;;5022295;28;20264;-69
2022/07/13 06:28:52;;;;;;;4.37;1.70;;;22.90;99.90;;;;;;5022889;28;20198;-68
2022/07/13 06:31:18;;;;;;;1.70;1.60;;;23.10;99.90;;;;;;5023338;28;20662;-69
2022/07/13 06:33:43;;;;;;;2.80;1.80;;;23.20;99.90;;;;;;5023379;28;20191;-69
2022/07/13 06:36:09;;;;;;;2.27;2.07;;;23.30;99.90;;;;;;5023112;28;20223;-70
2022/07/13 06:38:35;;;;;;;3.57;1.70;;;23.40;99.90;;;;;;5023102;28;20290;-66
2022/07/13 06:41:01;;;;;;;10.10;2.20;;;23.60;99.90;;;;;;5005444;28;20175;-68
2022/07/13 06:43:26;;;;;;;3.00;2.00;;;23.60;99.90;;;;;;5023046;28;20414;-69
2022/07/13 06:45:52;;;;;;;4.03;2.10;;;23.50;99.90;;;;;;5023233;28;20266;-68
2022/07/13 06:48:17;;;;;;;2.13;1.90;;;23.60;99.90;;;;;;5021688;28;20349;-68
2022/07/13 06:50:43;;;;;;;4.70;2.30;;;23.80;99.90;;;;;;5023419;28;20277;-67
2022/07/13 06:53:09;;;;;;;4.57;1.80;;;23.90;99.90;;;;;;5022960;28;20266;-69
2022/07/13 06:55:34;;;;;;;1.97;1.70;;;23.90;99.90;;;;;;5022385;28;20211;-67
2022/07/13 06:58:00;;;;;;;3.40;2.00;;;23.90;99.90;;;;;;5022595;28;20698;-68
2022/07/13 07:00:26;;;;;;;3.40;1.80;;;23.70;99.90;;;;;;5023582;28;20274;-68
2022/07/13 07:02:51;;;;;;;4.57;1.90;;;23.80;99.90;;;;;;5023063;28;20190;-68
2022/07/13 07:05:17;;;;;;;4.33;1.80;;;24.10;99.90;;;;;;5027325;28;20286;-68
2022/07/13 07:07:43;;;;;;;4.70;1.90;;;24.30;99.90;;;;;;5025794;28;20187;-69
2022/07/13 07:10:09;;;;;;;2.40;1.77;;;24.40;99.90;;;;;;5009092;28;20207;-68
2022/07/13 07:12:35;;;;;;;6.03;2.20;;;24.50;99.90;;;;;;5026713;28;20644;-68
2022/07/13 07:15:01;;;;;;;4.00;2.50;;;24.40;99.60;;;;;;5027114;28;20464;-68
2022/07/13 07:17:27;;;;;;;3.23;2.13;;;24.30;99.90;;;;;;5026831;28;20226;-68
2022/07/13 07:20:00;;;;;;;4.33;2.10;;;24.50;99.90;;;;;;5026384;28;20513;-68
2022/07/13 07:22:26;;;;;;;2.77;1.73;;;24.60;99.90;;;;;;5026656;28;20180;-68
2022/07/13 07:24:52;;;;;;;3.50;1.40;;;24.80;99.40;;;;;;5025625;28;20889;-68
2022/07/13 07:27:17;;;;;;;1.57;1.40;;;24.50;97.60;;;;;;5026615;28;20865;-69
2022/07/13 07:29:43;;;;;;;3.03;1.40;;;24.10;97.90;;;;;;5026246;28;20199;-68
2022/07/13 07:32:09;;;;;;;4.13;1.50;;;24.00;97.90;;;;;;5026778;28;20183;-69
2022/07/13 07:35:13;;;;;;;6.43;1.77;;;24.30;97.80;;;;;;5025946;28;20602;-67
2022/07/13 07:37:58;;;;;;;5.07;1.43;;;24.50;97.30;;;;;;5026549;28;20175;-67
2022/07/13 07:40:24;;;;;;;3.13;1.50;;;24.60;96.90;;;;;;5025745;28;20430;-67
2022/07/13 07:42:50;;;;;;;3.17;1.50;;;24.90;97.30;;;;;;5025946;28;20480;-68
2022/07/13 07:45:15;;;;;;;3.10;1.40;;;25.00;97.20;;;;;;5026117;28;20420;-68
2022/07/13 07:47:41;;;;;;;2.07;1.23;;;25.50;96.50;;;;;;5024175;28;20219;-69
2022/07/13 07:50:07;;;;;;;2.00;1.23;;;25.80;95.60;;;;;;5025882;28;20253;-68
2022/07/13 07:52:33;;;;;;;3.17;1.60;;;26.00;95.50;;;;;;5025599;28;20213;-69
2022/07/13 07:54:59;;;;;;;1.87;1.57;;;26.00;95.20;;;;;;5025659;28;20461;-68
2022/07/13 07:57:24;;;;;;;1.77;1.10;;;26.20;94.80;;;;;;5025608;28;20706;-70
2022/07/13 07:59:50;;;;;;;2.77;1.13;;;26.40;93.60;;;;;;5026074;28;20207;-68
2022/07/13 08:02:15;;;;;;;2.60;1.27;;;26.40;93.30;;;;;;5025589;28;20294;-69
2022/07/13 08:04:42;;;;;;;3.93;1.00;;;26.40;93.00;;;;;;5025702;28;20194;-69
2022/07/13 08:07:08;;;;;;;2.53;1.07;;;26.70;92.40;;;;;;5025716;28;20207;-68
2022/07/13 08:09:34;;;;;;;1.20;0.93;;;27.00;92.40;;;;;;5024922;28;20509;-69
2022/07/13 08:12:02;;;;;;;4.97;1.63;;;27.50;91.90;;;;;;5025417;28;20282;-69
2022/07/13 08:14:29;;;;;;;2.13;1.30;;;27.70;91.60;;;;;;5024631;28;20424;-68
2022/07/13 08:16:55;;;;;;;1.80;1.27;;;28.10;91.00;;;;;;5024183;28;20508;-68
2022/07/13 08:19:21;;;;;;;2.07;1.43;;;28.40;88.90;;;;;;5025795;28;20532;-68
2022/07/13 08:21:46;;;;;;;1.57;1.33;;;28.60;90.00;;;;;;5025211;28;20253;-68
2022/07/13 08:24:12;;;;;;;2.83;1.70;;;29.10;90.30;;;;;;5024971;28;20203;-70
2022/07/13 08:26:37;;;;;;;3.50;1.67;;;28.70;90.10;;;;;;5025182;28;20183;-69
2022/07/13 08:29:03;;;;;;;4.07;2.10;;;28.00;91.10;;;;;;5025505;28;20246;-68
2022/07/13 08:31:29;;;;;;;3.33;2.00;;;27.70;91.40;;;;;;5025039;28;20187;-68
2022/07/13 08:39:24;;;;;;;5.53;1.77;;;28.20;90.00;;;;;;5025240;28;20451;-68
2022/07/13 08:41:50;;;;;;;2.23;1.50;;;28.60;88.40;;;;;;5025539;28;20856;-68
2022/07/13 08:44:16;;;;;;;3.17;0.90;;;28.70;83.40;;;;;;5024930;28;20517;-68
2022/07/13 08:46:43;;;;;;;2.20;1.20;;;29.00;82.20;;;;;;5024059;28;20416;-69
2022/07/13 08:49:09;;;;;;;2.30;0.90;;;29.10;80.70;;;;;;5024634;28;20433;-68
2022/07/13 08:51:36;;;;;;;1.67;1.13;;;29.20;80.20;;;;;;5024745;28;20463;-70
2022/07/13 08:54:04;;;;;;;2.50;0.90;;;29.50;80.00;;;;;;5024766;28;20910;-67
2022/07/13 08:56:30;;;;;;;1.10;1.00;;;29.40;79.00;;;;;;5024879;28;20787;-69
2022/07/13 08:58:56;;;;;;;1.77;1.00;;;29.70;79.60;;;;;;5024420;28;20438;-69
2022/07/13 09:01:22;;;;;;;1.00;0.90;;;29.70;75.70;;;;;;5024707;28;20411;-69
2022/07/13 09:03:48;;;;;;;1.70;1.20;;;29.50;74.50;;;;;;5024260;28;20240;-69
2022/07/13 09:06:40;;;;;;;1.43;1.00;;;29.50;74.20;;;;;;5024625;28;20223;-68
2022/07/13 09:09:06;;;;;;;2.50;1.00;;;28.90;74.50;;;;;;5016222;28;20223;-69
2022/07/13 09:11:32;;;;;;;1.10;0.80;;;28.70;75.80;;;;;;5024935;28;20418;-68
2022/07/13 09:13:58;;;;;;;2.93;1.30;;;28.80;78.20;;;;;;5024298;28;20417;-69
2022/07/13 09:16:25;;;;;;;1.20;0.80;;;28.80;75.20;;;;;;5024851;28;20285;-67
2022/07/13 09:18:54;;;;;;;3.30;0.90;;;28.70;75.90;;;;;;5024639;28;20684;-68
2022/07/13 09:21:22;;;;;;;2.20;0.97;;;28.50;80.70;;;;;;5025382;28;20413;-69
2022/07/13 09:23:58;;;;;;;2.30;1.20;;;28.60;77.80;;;;;;5025197;28;20413;-70
2022/07/13 09:26:38;;;;;;;2.77;1.37;;;28.90;77.90;;;;;;5024861;28;20405;-68
2022/07/13 09:29:05;;;;;;;2.53;1.30;;;28.70;77.30;;;;;;5025229;28;20887;-69
2022/07/13 09:31:47;;;;;;;1.53;1.00;;;28.90;77.20;;;;;;5025546;28;20433;-68
2022/07/13 09:34:14;;;;;;;3.27;1.23;;;28.60;77.20;;;;;;5025160;28;20574;-70
2022/07/13 09:36:40;;;;;;;1.43;0.93;;;28.20;80.80;;;;;;5024903;28;20579;-69
2022/07/13 09:39:11;;;;;;;1.30;1.00;;;28.40;79.50;;;;;;5023082;28;20466;-68
2022/07/13 09:41:37;;;;;;;1.93;1.50;;;28.30;78.90;;;;;;5023824;28;20312;-68
2022/07/13 09:46:59;;;;;;;2.20;1.07;;;28.10;74.00;;;;;;5023956;28;20221;-68
2022/07/13 09:49:43;;;;;;;1.60;1.10;;;28.10;75.90;;;;;;5023542;28;21017;-69
2022/07/13 09:52:13;;;;;;;1.70;0.97;;;28.40;77.00;;;;;;5022329;28;20887;-68
2022/07/13 09:54:44;;;;;;;1.47;1.37;;;28.70;75.00;;;;;;5023858;28;20935;-69
2022/07/13 09:57:13;;;;;;;1.97;1.00;;;28.90;73.40;;;;;;5022293;28;20421;-68
2022/07/13 09:59:43;;;;;;;1.40;0.87;;;29.00;72.60;;;;;;5023456;28;20481;-70
2022/07/13 10:02:09;;;;;;;1.30;1.00;;;28.90;69.20;;;;;;5023465;28;20404;-70
2022/07/13 10:04:38;;;;;;;1.47;0.90;;;28.80;68.40;;;;;;5023201;28;20446;-71
2022/07/13 10:07:05;;;;;;;1.47;0.90;;;28.90;68.30;;;;;;5023847;28;20447;-70
2022/07/13 10:09:31;;;;;;;1.17;0.90;;;28.80;68.30;;;;;;5025184;28;20448;-68
2022/07/13 10:11:57;;;;;;;2.20;1.00;;;28.80;66.00;;;;;;5022915;28;20521;-69
2022/07/13 10:14:23;;;;;;;1.40;1.00;;;28.70;65.80;;;;;;5023591;28;20627;-70
2022/07/13 10:16:52;;;;;;;1.30;0.97;;;28.80;66.20;;;;;;5023561;28;20449;-70
2022/07/13 10:19:19;;;;;;;1.47;0.70;;;29.00;64.60;;;;;;5022182;28;20498;-69
2022/07/13 10:22:09;;;;;;;2.17;0.80;;;29.10;60.80;;;;;;5023441;28;20441;-70
2022/07/13 10:24:36;;;;;;;1.30;0.70;;;29.20;59.40;;;;;;5023509;28;20424;-70
2022/07/13 10:27:26;;;;;;;2.07;0.90;;;29.20;57.50;;;;;;5022972;28;20428;-68
2022/07/13 10:29:57;;;;;;;0.90;0.70;;;29.40;58.30;;;;;;5023651;28;21632;-71
2022/07/13 10:32:26;;;;;;;0.80;0.70;;;29.60;57.10;;;;;;5023483;28;20786;-69
2022/07/13 10:35:09;;;;;;;2.60;0.80;;;29.80;54.70;;;;;;5023410;28;20465;-69
2022/07/13 10:37:57;;;;;;;3.17;0.80;;;29.90;53.80;;;;;;5023231;28;20471;-69
2022/07/13 10:40:24;;;;;;;2.30;1.27;;;29.90;56.90;;;;;;5027133;28;20540;-69
2022/07/13 10:42:57;;;;;;;1.00;0.80;;;30.10;56.30;;;;;;5025509;28;20890;-69
2022/07/13 10:45:34;;;;;;;2.30;0.83;;;30.20;57.70;;;;;;5026900;28;20417;-70
2022/07/13 10:48:30;;;;;;;1.00;0.50;;;30.60;56.40;;;;;;5027203;28;20447;-70
2022/07/13 10:50:57;;;;;;;1.67;0.73;;;30.50;54.20;;;;;;5027526;28;20402;-69
2022/07/13 10:53:38;;;;;;;2.20;0.80;;;30.20;53.10;;;;;;5027074;28;20495;-70
2022/07/13 10:56:15;;;;;;;0.77;0.60;;;30.00;51.20;;;;;;5026843;28;20445;-71
2022/07/13 10:58:44;;;;;;;1.80;0.70;;;30.20;52.10;;;;;;5026465;28;20434;-70
2022/07/13 11:01:47;;;;;;;2.00;0.70;;;30.60;50.10;;;;;;5027117;28;20492;-68
2022/07/13 11:04:18;;;;;;;1.30;0.73;;;31.00;50.80;;;;;;5026997;28;20420;-68
2022/07/13 11:07:05;;;;;;;4.07;0.90;;;31.20;49.60;;;;;;5027590;28;20398;-68
2022/07/13 11:09:30;;;;;;;1.10;0.60;;;31.40;52.50;;;;;;5027204;28;20438;-67
2022/07/13 11:11:56;;;;;;;0.70;0.50;;;31.30;49.00;;;;;;5026462;28;20422;-69
2022/07/13 11:14:40;;;;;;;2.50;0.70;;;31.30;50.00;;;;;;5026869;28;20179;-68
2022/07/13 11:17:16;;;;;;;0.97;0.67;;;31.60;46.30;;;;;;5025948;28;20194;-71
2022/07/13 11:19:51;;;;;;;0.80;0.60;;;31.60;44.80;;;;;;5026243;28;20437;-68
2022/07/13 11:22:17;;;;;;;0.80;0.60;;;31.80;44.40;;;;;;5026266;28;20419;-70
2022/07/13 11:27:59;;;;;;;0.90;0.63;;;32.20;44.20;;;;;;5026513;28;20471;-70
2022/07/13 11:30:35;;;;;;;1.60;0.70;;;32.30;44.70;;;;;;5026422;28;20430;-69
2022/07/13 11:33:00;;;;;;;1.47;0.70;;;32.50;43.90;;;;;;5026405;28;20421;-71
2022/07/13 11:35:26;;;;;;;0.70;0.60;;;32.90;43.30;;;;;;5028293;28;20467;-69
2022/07/13 11:37:53;;;;;;;0.90;0.70;;;33.50;43.00;;;;;;5026229;28;20183;-71
2022/07/13 11:40:30;;;;;;;0.80;0.50;;;34.10;41.40;;;;;;5026282;28;20222;-68
2022/07/13 11:42:59;;;;;;;0.90;0.70;;;36.20;39.10;;;;;;5026159;28;20436;-70
2022/07/13 11:45:30;;;;;;;1.13;0.70;;;38.70;37.70;;;;;;5026112;28;20409;-69
2022/07/13 11:48:04;;;;;;;1.00;0.60;;;38.70;33.80;;;;;;5024871;28;20441;-70
2022/07/13 11:50:50;;;;;;;1.20;0.50;;;38.40;33.90;;;;;;5026058;28;20405;-71
2022/07/13 11:53:22;;;;;;;1.40;1.00;;;39.30;32.60;;;;;;5026050;28;20413;-69
2022/07/13 11:55:48;;;;;;;0.70;0.50;;;39.30;32.40;;;;;;5025894;28;20450;-68
2022/07/13 11:58:24;;;;;;;1.33;0.60;;;38.90;31.30;;;;;;5025344;28;20445;-69
2022/07/13 12:00:50;;;;;;;0.70;0.60;;;38.80;32.70;;;;;;5025611;28;20229;-70
2022/07/13 12:03:24;;;;;;;1.00;0.50;;;39.50;31.20;;;;;;5025823;28;20422;-70
2022/07/13 12:05:52;;;;;;;2.90;0.60;;;40.60;30.10;;;;;;5025882;28;21300;-70
2022/07/13 12:08:17;;;;;;;1.50;0.53;;;40.90;28.60;;;;;;5025703;28;20475;-71
2022/07/13 12:10:43;;;;;;;0.87;0.50;;;40.00;28.40;;;;;;5025473;28;20418;-69
2022/07/13 12:13:09;;;;;;;1.13;0.70;;;39.60;28.10;;;;;;5025403;28;20220;-70
2022/07/13 12:15:35;;;;;;;2.40;0.70;;;39.80;27.70;;;;;;5025603;28;20950;-71
2022/07/13 12:18:05;;;;;;;0.90;0.60;;;40.70;27.40;;;;;;5025205;28;20187;-72
2022/07/13 12:20:33;;;;;;;1.43;0.50;;;40.20;27.60;;;;;;5025711;28;20481;-69
2022/07/13 12:22:59;;;;;;;2.13;0.70;;;41.30;27.60;;;;;;5025595;28;20468;-68
2022/07/13 12:25:34;;;;;;;2.33;0.60;;;40.90;27.30;;;;;;5025089;28;20410;-69
2022/07/13 12:28:00;;;;;;;2.30;0.70;;;39.60;28.20;;;;;;5024714;28;20181;-69
2022/07/13 12:30:28;;;;;;;1.27;0.73;;;38.60;29.20;;;;;;5007270;28;20429;-69
2022/07/13 12:33:03;;;;;;;0.80;0.60;;;38.30;30.50;;;;;;5024788;28;20921;-69
2022/07/13 12:35:36;;;;;;;1.23;0.70;;;37.80;30.80;;;;;;5025609;28;20471;-68
2022/07/13 12:38:04;;;;;;;1.10;0.70;;;37.50;29.80;;;;;;5024646;28;20405;-69
2022/07/13 12:40:52;;;;;;;0.90;0.50;;;37.10;29.60;;;;;;5025158;28;20402;-70
2022/07/13 12:43:25;;;;;;;1.57;0.60;;;37.30;29.80;;;;;;5024495;28;20410;-69
2022/07/13 12:45:52;;;;;;;1.80;0.50;;;36.80;30.40;;;;;;5024968;28;20484;-71
2022/07/13 12:48:28;;;;;;;1.37;0.63;;;36.80;30.50;;;;;;5024767;28;20463;-72
2022/07/13 12:51:08;;;;;;;0.80;0.50;;;36.90;31.30;;;;;;5024690;28;20459;-70
2022/07/13 12:53:52;;;;;;;1.00;0.90;;;36.90;32.80;;;;;;5024067;28;20950;-70
2022/07/13 12:56:25;;;;;;;0.90;0.60;;;37.50;31.60;;;;;;5024682;28;20453;-70
2022/07/13 12:59:04;;;;;;;1.10;0.50;;;37.10;30.80;;;;;;5022754;28;20442;-70
2022/07/13 13:01:31;;;;;;;0.87;0.70;;;37.20;31.40;;;;;;5023797;28;20520;-69
2022/07/13 13:04:00;;;;;;;1.40;0.77;;;36.50;32.30;;;;;;5024371;28;20421;-71